Historyczne dane pomiarowe

Dodano dane terminowe – wersja testowa.

Dane z okresu 1951-2019

Wersja bazy: 1.34 [2019-03-16, lista zmian], aktualizacja planowana na 2019-04-15

Dane meteo z obszaru Polski uzyskane na podstawie danych udostępnionych przez Instytut Meteorologii i Gospodarki Wodnej – Państwowy Instytut Badawczy.

 

Wybierz Datę:    

       

TemperaturaWilgotnośćWiatrCiśnienieOpadyŚniegCzas trwania zjawisk
 Stacja t tx tn tng RH VA  wxwx mslp ppp RRR   cm mm wxwxwxwxwxwxwx
1961-08-14 15.3 19.5 11.7 9.2 77.0- 7.3 2.7---- 0.0------------
1961-08-13 15.1 18.7 12.2 8.3 72.3- 3.0 6.0---- 0.0------------
1961-08-12 16.1 19.4 14.9 11.5 89.5- 7.0 2.7---- 9.6------------
1961-08-11 16.8 17.5 15.7 14.5 89.0- 7.0 2.3---- 0.2------------
1961-08-10 16.9 19.5 15.0 10.1 85.5- 5.3 3.0---- 6.4------------
1961-08-09 18.4 22.5 15.4 11.6 77.0- 6.0 3.7---- 0.0------------
1961-08-08 16.7 18.7 12.7 10.3 79.3- 6.3 5.0---- 0.0------------
1961-08-07 15.3 17.7 13.4 11.9 89.3- 7.0 2.3---- 11.4------------
1961-08-06 19.3 26.8 15.9 13.7 74.5- 6.0 4.0---- 5.1------------
1961-08-05 17.3 20.8 14.1 13.3 72.8- 5.3 5.0---- 3.0------------
1961-08-04 14.3 17.0 11.6 9.5 84.5- 7.3 5.7---- 1.9------------
1961-08-03 15.3 19.5 13.2 11.3 84.5- 4.7 3.0---- 1.7------------
1961-08-02 17.7 21.3 13.8 11.9 70.5- 6.0 3.7---- 0.0------------
1961-08-01 15.2 18.0 14.0 13.4 89.5- 7.0 5.7---- 3.2------------
1961-07-31 16.0 16.9 13.9 14.5 90.8- 8.0 5.0---- 30.1------------
1961-07-30 16.0 18.0 12.7 11.4 86.5- 7.0 3.0---- 1.3------------
1961-07-29 15.6 18.5 12.6 10.5 70.3- 7.0 5.3---- 0.0------------
1961-07-28 14.2 15.8 13.5 12.2 83.0- 7.0 3.0---- 0.6------------
1961-07-27 16.3 20.0 14.8 13.6 81.0- 7.3 5.7---- 0.4------------
1961-07-26 18.0 20.2 14.3 13.5 72.0- 8.0 5.0---- 0.6------------
1961-07-25 15.3 18.7 12.8 9.4 73.8- 6.7 4.7---- 0.0------------
1961-07-24 15.4 19.2 13.2 10.7 72.8- 4.0 6.3---- 1.3------------
1961-07-23 15.6 18.7 14.3 12.9 78.3- 5.7 5.0---- 0.0------------
1961-07-22 16.3 19.4 13.7 11.8 81.3- 7.0 5.0---- 0.1------------
1961-07-21 15.1 18.6 13.7 11.2 92.3- 7.7 2.3---- 14.6------------
1961-07-20 16.3 20.5 13.5 10.2 80.0- 5.7 2.7---- 2.1------------
1961-07-19 16.1 19.3 14.2 12.9 85.3- 6.0 3.7---- 7.7------------
1961-07-18 15.2 16.9 12.5 11.9 85.0- 7.0 2.7---- 1.4------------
1961-07-17 16.5 17.8 13.3 9.6 78.3- 3.3 4.0---- 15.5------------
1961-07-16 15.7 17.8 12.2 8.1 84.8- 7.7 1.0---- 0.3------------
1961-07-15 16.3 18.9 13.9 12.2 83.5- 4.0 3.0---- 1.1------------
1961-07-14 15.6 21.3 13.7 11.6 81.5- 7.3 5.0---- 0.0------------
1961-07-13 19.4 21.6 13.7 11.6 81.5- 6.3 3.7---- 27.0------------
1961-07-12 16.8 21.9 11.7 11.8 84.5- 6.3 3.0---- 0.0------------
1961-07-11 16.4 19.9 11.8 10.2 68.0- 5.7 5.7---- 0.5------------
1961-07-10 14.9 17.9 12.3 10.7 71.3- 6.3 4.3---- 0.4------------
1961-07-09 15.7 18.9 13.9 12.6 79.8- 6.7 4.3---- 1.2------------
1961-07-08 15.4 19.9 11.1 6.7 78.8- 7.0 3.7---- 1.0------------
1961-07-07 13.1 17.1 11.4 8.3 79.8- 5.0 4.7---- 2.6------------
1961-07-06 12.9 15.0 9.4 7.7 78.5- 6.0 7.0---- 2.4------------
1961-07-05 13.7 17.1 12.3 5.2 69.3- 3.7 5.3---- 1.2------------
1961-07-04 17.2 19.2 14.3 10.8 71.5- 6.7 5.0---- 0.7------------
1961-07-03 21.8 32.8 11.7 13.5 74.3- 4.3 4.0---- 0.5------------
1961-07-02 21.0 24.1 13.3 7.7 63.8- 0.0 2.7---- 0.0------------
1961-07-01 17.2 19.2 12.4 6.8 81.8- 1.7 1.3---- 0.0------------
1961-06-30 18.1 23.9 14.4 9.1 61.5- 1.7 5.0---- 0.0------------
1961-06-29 16.1 20.1 13.9 12.0 72.0- 4.3 4.7---- 0.0------------
1961-06-28 15.3 19.9 13.8 13.7 57.3- 2.7 8.3---- 0.0------------
1961-06-27 18.7 26.3 15.7 13.7 86.5- 5.7 6.3---- 9.4------------
1961-06-26 18.7 25.5 15.6 13.4 72.5- 0.3 3.3---- 0.0------------
1961-06-25 22.0 27.5 16.2 14.0 52.0- 5.3 7.0---- 0.0------------
1961-06-24 17.7 21.5 14.4 13.6 58.0- 6.3 6.0---- 0.0------------
1961-06-23 18.3 21.2 13.7 8.5 61.3- 4.0 4.3---- 0.0------------
1961-06-22 16.0 20.0 10.2 6.5 68.3- 3.0 4.0---- 0.0------------
1961-06-21 13.6 19.3 12.5 10.0 73.8- 3.7 5.0---- 3.1------------
1961-06-20 14.7 18.5 11.9 9.8 57.0- 4.0 6.3---- 0.0------------
1961-06-19 15.6 19.2 13.1 11.4 62.0- 2.3 6.7---- 0.0------------
1961-06-18 20.1 26.8 16.9 13.7 76.5- 5.7 5.0---- 0.0------------
1961-06-17 18.5 22.5 13.7 12.1 67.5- 4.3 6.0---- 0.0------------
1961-06-16 15.3 16.9 12.8 11.5 75.3- 6.7 7.0---- 0.4------------
1339.7 ms

 

Źródłem pochodzenia danych jest Instytut Meteorologii i Gospodarki Wodnej – Państwowy Instytut Badawczy. Dane Instytutu Meteorologii i Gospodarki Wodnej – Państwowego Instytutu Badawczego zostały przetworzone.

Dane źródłowe można odnaleźć na stronie https://dane.imgw.pl